nws-alerts: Checking more than four warning/county codes can delay the loading of your pages. You should use a cron job to get the data.
EllijayWeather Station Historical Data
Daily Summary for December 26, 2018 Units:  Metric    English   Both
Daily Weekly Monthly Yearly Custom
  High: Low: Average:
Temperature: 13.4 °C -1 °C 6.5 °C
Dew Point: 6.2 °C -1.7 °C 2.6 °C
Humidity: 97% 58% 78%
Wind Speed: 7.9km/h 0km/h 0.3km/h
Wind Gust: 17.7km/h - -
Wind- - SE
Pressure: 1033.4 hPa 1029.3 hPa -
Precipitation: 0 mm    
Historical Graphs
 
 
Tabular Data for December 26, 2018
Time Temperature Dew Point Pressure Wind Wind Speed Wind Gust Humidity Rainfall Rate (Hourly) solar
00:04 1.6 °C 0.7 °C 1030 hPa Calm     94% 0 mm meteobridge W/m2
00:09 1.6 °C 0.7 °C 1030 hPa Calm     94% 0 mm meteobridge W/m2
00:14 1.6 °C 0.7 °C 1030 hPa Calm     94% 0 mm meteobridge W/m2
00:19 1.5 °C 0.6 °C 1030 hPa Calm     94% 0 mm meteobridge W/m2
00:24 1.5 °C 0.6 °C 1030 hPa Calm     94% 0 mm meteobridge W/m2
00:29 1.4 °C 0.5 °C 1030 hPa Calm     94% 0 mm meteobridge W/m2
00:34 1.4 °C 0.5 °C 1030 hPa Calm     94% 0 mm meteobridge W/m2
00:39 1.4 °C 0.5 °C 1030 hPa Calm     94% 0 mm meteobridge W/m2
00:44 1.3 °C 0.4 °C 1030 hPa Calm     94% 0 mm meteobridge W/m2
00:49 1.4 °C 0.5 °C 1030 hPa Calm     94% 0 mm meteobridge W/m2
00:54 1.4 °C 0.7 °C 1030 hPa Calm     95% 0 mm meteobridge W/m2
00:59 1.4 °C 0.7 °C 1030 hPa Calm     95% 0 mm meteobridge W/m2
01:04 1.4 °C 0.7 °C 1030 hPa Calm     95% 0 mm meteobridge W/m2
01:09 1.5 °C 0.8 °C 1030 hPa Calm     95% 0 mm meteobridge W/m2
01:14 1.4 °C 0.7 °C 1030 hPa Calm     95% 0 mm meteobridge W/m2
01:19 1.5 °C 0.8 °C 1030.4 hPa Calm     95% 0 mm meteobridge W/m2
01:24 1.6 °C 0.9 °C 1030.4 hPa Calm     95% 0 mm meteobridge W/m2
01:29 1.6 °C 0.9 °C 1030.4 hPa Calm     95% 0 mm meteobridge W/m2
01:34 1.7 °C 1 °C 1030.4 hPa Calm     95% 0 mm meteobridge W/m2
01:39 1.8 °C 1.1 °C 1030.4 hPa Calm     95% 0 mm meteobridge W/m2
01:44 1.8 °C 1.1 °C 1030.4 hPa Calm     95% 0 mm meteobridge W/m2
01:49 1.9 °C 1.2 °C 1030.4 hPa Calm     95% 0 mm meteobridge W/m2
01:54 1.9 °C 1 °C 1030.4 hPa Calm     94% 0 mm meteobridge W/m2
01:59 2.1 °C 1.4 °C 1030.7 hPa Calm     95% 0 mm meteobridge W/m2
02:04 2.1 °C 1.4 °C 1030.7 hPa Calm     95% 0 mm meteobridge W/m2
02:08 2.1 °C 1.4 °C 1030.7 hPa Calm     95% 0 mm meteobridge W/m2
02:14 2.2 °C 1.5 °C 1030.7 hPa Calm     95% 0 mm meteobridge W/m2
02:19 2.2 °C 1.3 °C 1030.7 hPa Calm     94% 0 mm meteobridge W/m2
02:24 2.3 °C 1.4 °C 1030.7 hPa Calm     94% 0 mm meteobridge W/m2
02:29 2.3 °C 1.4 °C 1030.7 hPa Calm     94% 0 mm meteobridge W/m2
02:34 2.3 °C 1.4 °C 1030.7 hPa Calm     94% 0 mm meteobridge W/m2
02:39 2.3 °C 1.4 °C 1030.7 hPa Calm     94% 0 mm meteobridge W/m2
02:44 2.3 °C 1.4 °C 1030.7 hPa Calm     94% 0 mm meteobridge W/m2
02:49 2.3 °C 1.3 °C 1031 hPa Calm     93% 0 mm meteobridge W/m2
02:54 2.2 °C 1.2 °C 1031 hPa Calm     93% 0 mm meteobridge W/m2
02:59 2.1 °C 1.1 °C 1031 hPa Calm     93% 0 mm meteobridge W/m2
03:04 1.9 °C 0.7 °C 1031 hPa Calm     92% 0 mm meteobridge W/m2
03:09 1.8 °C 0.8 °C 1031 hPa Calm     93% 0 mm meteobridge W/m2
03:14 1.7 °C 0.7 °C 1031 hPa Calm     93% 0 mm meteobridge W/m2
03:19 1.6 °C 0.6 °C 1031 hPa Calm     93% 0 mm meteobridge W/m2
03:24 1.4 °C 0.4 °C 1031 hPa Calm     93% 0 mm meteobridge W/m2
03:29 1.4 °C 0.4 °C 1031 hPa Calm     93% 0 mm meteobridge W/m2
03:34 1.2 °C 0.2 °C 1031 hPa Calm     93% 0 mm meteobridge W/m2
03:39 1.2 °C 0.2 °C 1031 hPa Calm     93% 0 mm meteobridge W/m2
03:43 1.1 °C 0.1 °C 1031 hPa Calm     93% 0 mm meteobridge W/m2
03:49 0.9 °C -0.1 °C 1031 hPa Calm     93% 0 mm meteobridge W/m2
03:54 0.8 °C -0.2 °C 1031 hPa Calm     93% 0 mm meteobridge W/m2
03:59 0.7 °C -0.3 °C 1031 hPa Calm     93% 0 mm meteobridge W/m2
04:04 0.6 °C -0.4 °C 1030.7 hPa Calm     93% 0 mm meteobridge W/m2
04:09 0.4 °C -0.5 °C 1030.7 hPa Calm     94% 0 mm meteobridge W/m2
04:14 0.3 °C -0.7 °C 1030.7 hPa Calm     93% 0 mm meteobridge W/m2
04:19 0.2 °C -0.7 °C 1030.7 hPa Calm     94% 0 mm meteobridge W/m2
04:24 0.1 °C -0.8 °C 1030.7 hPa Calm     94% 0 mm meteobridge W/m2
04:29 0.1 °C -0.8 °C 1030.7 hPa Calm     94% 0 mm meteobridge W/m2
04:34 0 °C -0.8 °C 1030.7 hPa Calm     94% 0 mm meteobridge W/m2
04:38 -0.1 °C -0.9 °C 1031 hPa Calm     94% 0 mm meteobridge W/m2
04:44 -0.1 °C -0.9 °C 1031 hPa Calm     94% 0 mm meteobridge W/m2
04:49 -0.2 °C -1 °C 1031 hPa Calm     94% 0 mm meteobridge W/m2
04:54 -0.3 °C -1.1 °C 1031 hPa Calm     94% 0 mm meteobridge W/m2
04:59 -0.4 °C -1.2 °C 1031 hPa Calm     94% 0 mm meteobridge W/m2
05:04 -0.4 °C -1.2 °C 1031 hPa Calm     94% 0 mm meteobridge W/m2
05:09 -0.5 °C -1.3 °C 1031 hPa Calm     94% 0 mm meteobridge W/m2
05:14 -0.6 °C -1.4 °C 1031 hPa Calm     94% 0 mm meteobridge W/m2
05:19 -0.6 °C -1.4 °C 1031 hPa Calm     94% 0 mm meteobridge W/m2
05:24 -0.7 °C -1.5 °C 1031 hPa Calm     94% 0 mm meteobridge W/m2
05:29 -0.8 °C -1.6 °C 1031 hPa Calm     94% 0 mm meteobridge W/m2
05:34 -0.9 °C -1.7 °C 1031 hPa Calm     94% 0 mm meteobridge W/m2
05:39 -0.9 °C -1.6 °C 1031 hPa Calm     95% 0 mm meteobridge W/m2
05:44 -1 °C -1.7 °C 1031.4 hPa Calm     95% 0 mm meteobridge W/m2
05:49 -0.9 °C -1.6 °C 1031 hPa Calm     95% 0 mm meteobridge W/m2
05:54 -0.9 °C -1.6 °C 1031 hPa Calm     95% 0 mm meteobridge W/m2
05:59 -0.9 °C -1.6 °C 1031 hPa Calm     95% 0 mm meteobridge W/m2
06:04 -0.8 °C -1.4 °C 1031.4 hPa Calm     96% 0 mm meteobridge W/m2
06:09 -0.8 °C -1.4 °C 1031.4 hPa Calm     96% 0 mm meteobridge W/m2
06:14 -0.7 °C -1.3 °C 1031.4 hPa Calm     96% 0 mm meteobridge W/m2
06:18 -0.6 °C -1 °C 1031.4 hPa Calm     97% 0 mm meteobridge W/m2
06:23 -0.4 °C -0.8 °C 1031.4 hPa Calm     97% 0 mm meteobridge W/m2
06:29 -0.3 °C -0.7 °C 1031.7 hPa Calm     97% 0 mm meteobridge W/m2
06:34 -0.2 °C -0.6 °C 1031.7 hPa Calm     97% 0 mm meteobridge W/m2
06:39 -0.1 °C -0.5 °C 1031.7 hPa Calm     97% 0 mm meteobridge W/m2
06:44 0.1 °C -0.3 °C 1031.7 hPa Calm     97% 0 mm meteobridge W/m2
06:49 0.3 °C -0.1 °C 1031.7 hPa Calm     97% 0 mm meteobridge W/m2
06:54 0.4 °C 0 °C 1032.1 hPa Calm     97% 0 mm meteobridge W/m2
06:59 0.5 °C 0.1 °C 1032.1 hPa Calm     97% 0 mm meteobridge W/m2
07:04 0.7 °C 0.3 °C 1032.1 hPa Calm     97% 0 mm meteobridge W/m2
07:09 0.7 °C 0.3 °C 1032.1 hPa Calm     97% 0 mm meteobridge W/m2
07:14 0.8 °C 0.4 °C 1032.1 hPa Calm     97% 0 mm meteobridge W/m2
07:19 0.9 °C 0.5 °C 1032.1 hPa Calm     97% 0 mm meteobridge W/m2
07:24 1.1 °C 0.7 °C 1032.1 hPa Calm     97% 0 mm meteobridge W/m2
07:29 1.2 °C 0.8 °C 1032.4 hPa Calm     97% 0 mm meteobridge W/m2
07:34 1.2 °C 0.8 °C 1032.4 hPa Calm     97% 0 mm meteobridge W/m2
07:39 1.3 °C 0.9 °C 1032.4 hPa Calm     97% 0 mm meteobridge W/m2
07:44 1.4 °C 1 °C 1032.4 hPa Calm     97% 0 mm meteobridge W/m2
07:49 1.4 °C 1 °C 1032.4 hPa Calm     97% 0 mm meteobridge W/m2
07:54 1.4 °C 0.8 °C 1032.4 hPa Calm     96% 0 mm meteobridge W/m2
07:59 1.4 °C 0.8 °C 1032.4 hPa Calm     96% 0 mm meteobridge W/m2
08:04 1.6 °C 1 °C 1032.7 hPa Calm     96% 0 mm meteobridge W/m2
08:09 1.6 °C 1 °C 1032.7 hPa Calm     96% 0 mm meteobridge W/m2
08:14 1.7 °C 1.1 °C 1032.7 hPa Calm     96% 0 mm meteobridge W/m2
08:19 1.8 °C 1.2 °C 1032.7 hPa Calm     96% 0 mm meteobridge W/m2
08:24 1.8 °C 1.2 °C 1032.4 hPa Calm     96% 0 mm meteobridge W/m2
08:29 1.9 °C 1.3 °C 1032.4 hPa Calm     96% 0 mm meteobridge W/m2
08:34 1.9 °C 1.3 °C 1032.7 hPa Calm     96% 0 mm meteobridge W/m2
08:39 2 °C 1.4 °C 1032.7 hPa Calm     96% 0 mm meteobridge W/m2
08:44 2.1 °C 1.5 °C 1032.7 hPa Calm     96% 0 mm meteobridge W/m2
08:49 2.2 °C 1.6 °C 1032.7 hPa Calm     96% 0 mm meteobridge W/m2
08:54 2.3 °C 1.7 °C 1032.7 hPa Calm     96% 0 mm meteobridge W/m2
08:59 2.4 °C 1.8 °C 1032.7 hPa Calm     96% 0 mm meteobridge W/m2
09:04 2.6 °C 2 °C 1032.7 hPa Calm     96% 0 mm meteobridge W/m2
09:09 2.7 °C 2.1 °C 1033.1 hPa Calm     96% 0 mm meteobridge W/m2
09:14 2.8 °C 2.2 °C 1033.1 hPa Calm     96% 0 mm meteobridge W/m2
09:19 2.9 °C 2.3 °C 1033.1 hPa Calm     96% 0 mm meteobridge W/m2
09:24 3.1 °C 2.5 °C 1033.1 hPa Calm     96% 0 mm meteobridge W/m2
09:29 3.3 °C 2.9 °C 1033.1 hPa Calm     97% 0 mm meteobridge W/m2
09:34 3.5 °C 3.1 °C 1033.1 hPa Calm     97% 0 mm meteobridge W/m2
09:39 3.7 °C 3.3 °C 1033.4 hPa Calm     97% 0 mm meteobridge W/m2
09:44 4 °C 3.6 °C 1033.1 hPa Calm     97% 0 mm meteobridge W/m2
09:49 4.2 °C 3.6 °C 1033.4 hPa Calm     96% 0 mm meteobridge W/m2
09:54 4.4 °C 3.8 °C 1033.4 hPa Calm     96% 0 mm meteobridge W/m2
09:59 4.7 °C 4.1 °C 1033.4 hPa Calm     96% 0 mm meteobridge W/m2
10:04 5.1 °C 4.5 °C 1033.1 hPa Calm     96% 0 mm meteobridge W/m2
10:08 5.3 °C 4.6 °C 1033.4 hPa Calm     95% 0 mm meteobridge W/m2
10:14 5.6 °C 4.9 °C 1033.4 hPa Calm     95% 0 mm meteobridge W/m2
10:19 5.8 °C 4.9 °C 1033.4 hPa Calm     94% 0 mm meteobridge W/m2
10:24 6.1 °C 5.2 °C 1033.1 hPa Calm     94% 0 mm meteobridge W/m2
10:29 6.3 °C 5.4 °C 1033.1 hPa Calm     94% 0 mm meteobridge W/m2
10:34 6.7 °C 5.8 °C 1033.1 hPa Calm     94% 0 mm meteobridge W/m2
10:39 6.9 °C 5.5 °C 1033.1 hPa Calm     91% 0 mm meteobridge W/m2
10:44 7.4 °C 5.7 °C 1032.7 hPa Calm     89% 0 mm meteobridge W/m2
10:49 7.7 °C 5.7 °C 1032.7 hPa Calm     87% 0 mm meteobridge W/m2
10:54 8.1 °C 5.4 °C 1032.7 hPa Calm     83% 0 mm meteobridge W/m2
10:59 8.6 °C 5.3 °C 1032.7 hPa Calm     80% 0 mm meteobridge W/m2
11:04 9.1 °C 4.7 °C 1032.7 hPa Calm     74% 0 mm meteobridge W/m2
11:09 9.4 °C 5 °C 1032.7 hPa Calm     74% 0 mm meteobridge W/m2
11:13 9.7 °C 5.5 °C 1032.7 hPa Calm     75% 0 mm meteobridge W/m2
11:19 9.9 °C 5.3 °C 1032.4 hPa Calm     73% 0 mm meteobridge W/m2
11:24 10.2 °C 5.2 °C 1032.4 hPa Calm     71% 0 mm meteobridge W/m2
11:29 10.4 °C 4.7 °C 1032.1 hPa Calm   1.6 km/h 68% 0 mm meteobridge W/m2
11:34 10.7 °C 4.8 °C 1032.1 hPa Calm     67% 0 mm meteobridge W/m2
11:39 10.9 °C 4.8 °C 1032.1 hPa Calm   6.4 km/h 66% 0 mm meteobridge W/m2
11:44 11.2 °C 4.9 °C 1032.1 hPa Calm     65% 0 mm meteobridge W/m2
11:49 11.4 °C 4.8 °C 1031.7 hPa Calm     64% 0 mm meteobridge W/m2
11:54 11.6 °C 4.8 °C 1031.7 hPa Calm     63% 0 mm meteobridge W/m2
11:59 11.7 °C 5.1 °C 1031.7 hPa Calm   6.4 km/h 64% 0 mm meteobridge W/m2
12:04 11.8 °C 5.2 °C 1031.4 hPa NNW 1.4 km/h 3.2 km/h 64% 0 mm meteobridge W/m2
12:09 11.9 °C 5.3 °C 1031.4 hPa Calm   1.6 km/h 64% 0 mm meteobridge W/m2
12:14 12.1 °C 5.3 °C 1031.4 hPa Calm   1.6 km/h 63% 0 mm meteobridge W/m2
12:19 12.3 °C 5.2 °C 1031.4 hPa Calm     62% 0 mm meteobridge W/m2
12:24 12.4 °C 5.1 °C 1031 hPa ESE 1.4 km/h 6.4 km/h 61% 0 mm meteobridge W/m2
12:29 12.5 °C 5.6 °C 1031 hPa Calm   1.6 km/h 63% 0 mm meteobridge W/m2
12:34 12.6 °C 5.5 °C 1031 hPa Calm     62% 0 mm meteobridge W/m2
12:39 12.6 °C 5.3 °C 1031 hPa NW 4.7 km/h 8 km/h 61% 0 mm meteobridge W/m2
12:44 12.5 °C 5.2 °C 1030.7 hPa Calm   4.8 km/h 61% 0 mm meteobridge W/m2
12:49 12.6 °C 5.5 °C 1030.4 hPa Calm     62% 0 mm meteobridge W/m2
12:54 12.8 °C 5.5 °C 1030.4 hPa Calm   1.6 km/h 61% 0 mm meteobridge W/m2
12:59 12.9 °C 5.6 °C 1030.4 hPa SE 3.2 km/h 3.2 km/h 61% 0 mm meteobridge W/m2
13:04 12.9 °C 5.6 °C 1030.4 hPa Calm     61% 0 mm meteobridge W/m2
13:09 13.1 °C 5.5 °C 1030 hPa Calm   1.6 km/h 60% 0 mm meteobridge W/m2
13:14 13.2 °C 5.6 °C 1030 hPa Calm   1.6 km/h 60% 0 mm meteobridge W/m2
13:19 13.3 °C 5.5 °C 1030 hPa Calm   1.6 km/h 59% 0 mm meteobridge W/m2
13:24 13.3 °C 5.2 °C 1030 hPa Calm   1.6 km/h 58% 0 mm meteobridge W/m2
13:29 13.3 °C 5.7 °C 1030 hPa Calm     60% 0 mm meteobridge W/m2
13:34 13.3 °C 6.2 °C 1030 hPa Calm     62% 0 mm meteobridge W/m2
13:39 13.3 °C 5.7 °C 1030 hPa Calm     60% 0 mm meteobridge W/m2
13:44 13.4 °C 6 °C 1029.7 hPa Calm     61% 0 mm meteobridge W/m2
13:49 13.4 °C 6 °C 1029.7 hPa Calm     61% 0 mm meteobridge W/m2
13:54 13.4 °C 5.3 °C 1029.7 hPa Calm   1.6 km/h 58% 0 mm meteobridge W/m2
13:59 13.3 °C 5.5 °C 1029.7 hPa Calm   6.4 km/h 59% 0 mm meteobridge W/m2
14:04 13.3 °C 5.5 °C 1029.7 hPa Calm   1.6 km/h 59% 0 mm meteobridge W/m2
14:09 13.3 °C 5.2 °C 1029.7 hPa Calm     58% 0 mm meteobridge W/m2
14:14 13.3 °C 5.2 °C 1029.7 hPa East 3.2 km/h 6.4 km/h 58% 0 mm meteobridge W/m2
14:19 13.2 °C 5.1 °C 1029.7 hPa Calm     58% 0 mm meteobridge W/m2
14:24 13.1 °C 5.3 °C 1029.7 hPa ESE 1.4 km/h 3.2 km/h 59% 0 mm meteobridge W/m2
14:29 13 °C 5.2 °C 1029.7 hPa ESE 3.2 km/h 8 km/h 59% 0 mm meteobridge W/m2
14:34 12.9 °C 5.1 °C 1029.7 hPa Calm   1.6 km/h 59% 0 mm meteobridge W/m2
14:39 13 °C 5.2 °C 1029.7 hPa Calm   1.6 km/h 59% 0 mm meteobridge W/m2
14:44 12.9 °C 5.1 °C 1029.3 hPa SE 1.4 km/h 6.4 km/h 59% 0 mm meteobridge W/m2
14:49 12.9 °C 5.1 °C 1029.7 hPa Calm   1.6 km/h 59% 0 mm meteobridge W/m2
14:54 13 °C 5.2 °C 1029.3 hPa Calm   1.6 km/h 59% 0 mm meteobridge W/m2
14:59 13 °C 5.2 °C 1029.3 hPa Calm   1.6 km/h 59% 0 mm meteobridge W/m2
15:04 12.9 °C 5.1 °C 1029.7 hPa Calm   6.4 km/h 59% 0 mm meteobridge W/m2
15:09 12.9 °C 5.1 °C 1029.7 hPa Calm   3.2 km/h 59% 0 mm meteobridge W/m2
15:14 12.8 °C 4.7 °C 1029.7 hPa SE 7.9 km/h 8 km/h 58% 0 mm meteobridge W/m2
15:19 12.7 °C 4.6 °C 1029.7 hPa Calm   8 km/h 58% 0 mm meteobridge W/m2
15:24 12.7 °C 4.9 °C 1029.7 hPa Calm     59% 0 mm meteobridge W/m2
15:29 12.6 °C 4.8 °C 1029.7 hPa Calm   6.4 km/h 59% 0 mm meteobridge W/m2
15:34 12.6 °C 5.3 °C 1029.7 hPa Calm     61% 0 mm meteobridge W/m2
15:39 12.5 °C 5.2 °C 1030 hPa ESE 1.4 km/h 1.6 km/h 61% 0 mm meteobridge W/m2
15:44 12.4 °C 4.6 °C 1030 hPa Calm   6.4 km/h 59% 0 mm meteobridge W/m2
15:49 12.3 °C 4.8 °C 1030 hPa Calm   8 km/h 60% 0 mm meteobridge W/m2
15:54 12.2 °C 4.7 °C 1030 hPa Calm   9.7 km/h 60% 0 mm meteobridge W/m2
15:59 12.2 °C 4.7 °C 1030 hPa Calm     60% 0 mm meteobridge W/m2
16:04 12.2 °C 4.7 °C 1029.7 hPa Calm     60% 0 mm meteobridge W/m2
16:09 12.1 °C 4.8 °C 1029.7 hPa ESE 1.4 km/h 1.6 km/h 61% 0 mm meteobridge W/m2
16:14 12.1 °C 5 °C 1029.7 hPa ESE 1.4 km/h 1.6 km/h 62% 0 mm meteobridge W/m2
16:19 12.1 °C 5 °C 1029.7 hPa Calm   1.6 km/h 62% 0 mm meteobridge W/m2
16:24 12.1 °C 5 °C 1029.7 hPa Calm   6.4 km/h 62% 0 mm meteobridge W/m2
16:29 11.9 °C 4.6 °C 1029.7 hPa Calm   1.6 km/h 61% 0 mm meteobridge W/m2
16:34 11.8 °C 4.8 °C 1029.7 hPa East 1.4 km/h 6.4 km/h 62% 0 mm meteobridge W/m2
16:39 11.6 °C 4.6 °C 1029.7 hPa Calm   6.4 km/h 62% 0 mm meteobridge W/m2
16:44 11.5 °C 4.5 °C 1029.7 hPa Calm   3.2 km/h 62% 0 mm meteobridge W/m2
16:49 11.4 °C 4.4 °C 1029.7 hPa Calm   1.6 km/h 62% 0 mm meteobridge W/m2
16:54 11.2 °C 4.2 °C 1029.7 hPa Calm   1.6 km/h 62% 0 mm meteobridge W/m2
16:59 11.1 °C 4.1 °C 1029.7 hPa ESE 1.4 km/h 8 km/h 62% 0 mm meteobridge W/m2
17:04 11 °C 4.5 °C 1029.3 hPa Calm   1.6 km/h 64% 0 mm meteobridge W/m2
17:09 10.8 °C 4 °C 1029.3 hPa Calm   6.4 km/h 63% 0 mm meteobridge W/m2
17:14 10.7 °C 4.2 °C 1029.3 hPa SE 6.4 km/h 8 km/h 64% 0 mm meteobridge W/m2
17:18 10.6 °C 4.3 °C 1029.3 hPa Calm     65% 0 mm meteobridge W/m2
17:24 10.4 °C 4.1 °C 1029.3 hPa ESE 3.2 km/h 3.2 km/h 65% 0 mm meteobridge W/m2
17:29 10.4 °C 4.3 °C 1029.3 hPa SE 1.4 km/h 1.6 km/h 66% 0 mm meteobridge W/m2
17:34 10.2 °C 3.9 °C 1029.3 hPa ESE 1.4 km/h 3.2 km/h 65% 0 mm meteobridge W/m2
17:39 10.2 °C 3.9 °C 1029.3 hPa SE 1.4 km/h 3.2 km/h 65% 0 mm meteobridge W/m2
17:44 10.2 °C 3.9 °C 1029.3 hPa Calm     65% 0 mm meteobridge W/m2
17:49 10.1 °C 3.8 °C 1029.3 hPa Calm   3.2 km/h 65% 0 mm meteobridge W/m2
17:54 10.1 °C 4 °C 1029.3 hPa Calm     66% 0 mm meteobridge W/m2
17:59 9.9 °C 3.8 °C 1029.3 hPa Calm   6.4 km/h 66% 0 mm meteobridge W/m2
18:04 9.8 °C 3.7 °C 1029.7 hPa ESE 1.4 km/h 8 km/h 66% 0 mm meteobridge W/m2
18:09 9.8 °C 3.7 °C 1029.7 hPa Calm   6.4 km/h 66% 0 mm meteobridge W/m2
18:14 9.8 °C 3.7 °C 1029.7 hPa Calm     66% 0 mm meteobridge W/m2
18:19 9.7 °C 3.7 °C 1029.7 hPa Calm     66% 0 mm meteobridge W/m2
18:24 9.6 °C 3.8 °C 1030 hPa Calm   1.6 km/h 67% 0 mm meteobridge W/m2
18:29 9.6 °C 3.8 °C 1029.7 hPa Calm     67% 0 mm meteobridge W/m2
18:34 9.6 °C 3.8 °C 1029.7 hPa Calm   3.2 km/h 67% 0 mm meteobridge W/m2
18:39 9.5 °C 3.7 °C 1030 hPa Calm   3.2 km/h 67% 0 mm meteobridge W/m2
18:44 9.4 °C 3.6 °C 1030 hPa Calm   1.6 km/h 67% 0 mm meteobridge W/m2
18:49 9.4 °C 3.6 °C 1030 hPa SE 1.4 km/h 8 km/h 67% 0 mm meteobridge W/m2
18:54 9.5 °C 3.5 °C 1030 hPa Calm   6.4 km/h 66% 0 mm meteobridge W/m2
18:59 9.5 °C 3.7 °C 1030 hPa Calm   8 km/h 67% 0 mm meteobridge W/m2
19:04 9.4 °C 3.4 °C 1030 hPa Calm   3.2 km/h 66% 0 mm meteobridge W/m2
19:09 9.4 °C 3.6 °C 1030 hPa Calm   3.2 km/h 67% 0 mm meteobridge W/m2
19:14 9.3 °C 3.5 °C 1030 hPa Calm   3.2 km/h 67% 0 mm meteobridge W/m2
19:19 9.4 °C 3.8 °C 1030 hPa Calm     68% 0 mm meteobridge W/m2
19:24 9.2 °C 3.4 °C 1030 hPa SE 1.4 km/h 1.6 km/h 67% 0 mm meteobridge W/m2
19:29 9.2 °C 3.6 °C 1030 hPa Calm   1.6 km/h 68% 0 mm meteobridge W/m2
19:34 9 °C 3.4 °C 1030 hPa Calm   3.2 km/h 68% 0 mm meteobridge W/m2
19:39 8.9 °C 3.3 °C 1030.4 hPa ESE 3.2 km/h 6.4 km/h 68% 0 mm meteobridge W/m2
19:44 8.9 °C 3.1 °C 1030.4 hPa Calm     67% 0 mm meteobridge W/m2
19:49 8.9 °C 2.9 °C 1030.4 hPa Calm   8 km/h 66% 0 mm meteobridge W/m2
19:54 9.1 °C 3.1 °C 1030.4 hPa Calm   1.6 km/h 66% 0 mm meteobridge W/m2
19:59 9.1 °C 2.9 °C 1030 hPa Calm   6.4 km/h 65% 0 mm meteobridge W/m2
20:04 9 °C 3.2 °C 1030 hPa Calm   1.6 km/h 67% 0 mm meteobridge W/m2
20:09 8.8 °C 2.8 °C 1030 hPa SSE 1.4 km/h 6.4 km/h 66% 0 mm meteobridge W/m2
20:14 8.9 °C 2.9 °C 1030 hPa Calm   6.4 km/h 66% 0 mm meteobridge W/m2
20:19 8.8 °C 2.8 °C 1030 hPa Calm     66% 0 mm meteobridge W/m2
20:24 8.8 °C 2.8 °C 1030 hPa Calm   6.4 km/h 66% 0 mm meteobridge W/m2
20:28 8.7 °C 2.7 °C 1030 hPa Calm   1.6 km/h 66% 0 mm meteobridge W/m2
20:34 8.8 °C 3 °C 1030.4 hPa Calm   3.2 km/h 67% 0 mm meteobridge W/m2
20:39 8.7 °C 2.7 °C 1030 hPa Calm     66% 0 mm meteobridge W/m2
20:44 8.7 °C 2.7 °C 1030 hPa Calm     66% 0 mm meteobridge W/m2
20:49 8.7 °C 2.7 °C 1029.7 hPa Calm   1.6 km/h 66% 0 mm meteobridge W/m2
20:54 8.7 °C 2.5 °C 1029.7 hPa Calm   6.4 km/h 65% 0 mm meteobridge W/m2
20:59 8.6 °C 2.8 °C 1030 hPa Calm   4.8 km/h 67% 0 mm meteobridge W/m2
21:04 8.6 °C 2.6 °C 1029.7 hPa Calm   3.2 km/h 66% 0 mm meteobridge W/m2
21:09 8.6 °C 2.6 °C 1030 hPa Calm     66% 0 mm meteobridge W/m2
21:14 8.7 °C 2.7 °C 1030 hPa SE 6.4 km/h 8 km/h 66% 0 mm meteobridge W/m2
21:19 8.7 °C 2.5 °C 1030 hPa Calm   1.6 km/h 65% 0 mm meteobridge W/m2
21:24 8.8 °C 2.6 °C 1030 hPa Calm     65% 0 mm meteobridge W/m2
21:29 8.7 °C 2.5 °C 1029.7 hPa Calm     65% 0 mm meteobridge W/m2
21:34 8.7 °C 2.5 °C 1029.7 hPa Calm     65% 0 mm meteobridge W/m2
21:39 8.7 °C 2.5 °C 1029.7 hPa Calm   9.7 km/h 65% 0 mm meteobridge W/m2
21:44 8.7 °C 2.5 °C 1029.7 hPa Calm   1.6 km/h 65% 0 mm meteobridge W/m2
21:49 8.7 °C 2.5 °C 1029.7 hPa Calm     65% 0 mm meteobridge W/m2
21:54 8.6 °C 2.6 °C 1029.7 hPa Calm     66% 0 mm meteobridge W/m2
21:59 8.6 °C 2.6 °C 1029.7 hPa SE 1.4 km/h 1.6 km/h 66% 0 mm meteobridge W/m2
22:04 8.5 °C 2.5 °C 1029.7 hPa Calm   1.6 km/h 66% 0 mm meteobridge W/m2
22:09 8.4 °C 2.2 °C 1029.7 hPa Calm   3.2 km/h 65% 0 mm meteobridge W/m2
22:14 8.6 °C 2.4 °C 1029.7 hPa Calm   1.6 km/h 65% 0 mm meteobridge W/m2
22:19 8.6 °C 2.4 °C 1029.7 hPa SE 1.4 km/h 6.4 km/h 65% 0 mm meteobridge W/m2
22:24 8.6 °C 2.4 °C 1029.7 hPa SSE 3.2 km/h 8 km/h 65% 0 mm meteobridge W/m2
22:29 8.6 °C 2.2 °C 1030 hPa Calm   12.9 km/h 64% 0 mm meteobridge W/m2
22:34 8.7 °C 2.3 °C 1030 hPa SSE 7.9 km/h 12.9 km/h 64% 0 mm meteobridge W/m2
22:39 8.7 °C 2.3 °C 1030 hPa East 3.2 km/h 8 km/h 64% 0 mm meteobridge W/m2
22:44 8.7 °C 2.3 °C 1030 hPa SE 1.4 km/h 9.7 km/h 64% 0 mm meteobridge W/m2
22:49 8.6 °C 2.4 °C 1030 hPa SE 3.2 km/h 3.2 km/h 65% 0 mm meteobridge W/m2
22:54 8.5 °C 2.3 °C 1030 hPa Calm   1.6 km/h 65% 0 mm meteobridge W/m2
22:59 8.4 °C 2 °C 1030 hPa SE 6.4 km/h 14.5 km/h 64% 0 mm meteobridge W/m2
23:04 8.4 °C 2.8 °C 1030 hPa Calm     68% 0 mm meteobridge W/m2
23:09 8.4 °C 2 °C 1030 hPa Calm   1.6 km/h 64% 0 mm meteobridge W/m2
23:14 8.4 °C 2 °C 1030 hPa East 1.4 km/h 9.7 km/h 64% 0 mm meteobridge W/m2
23:19 8.4 °C 2 °C 1030 hPa Calm   8 km/h 64% 0 mm meteobridge W/m2
23:24 8.3 °C 1.9 °C 1030 hPa Calm   11.3 km/h 64% 0 mm meteobridge W/m2
23:29 8.3 °C 1.9 °C 1030 hPa Calm   6.4 km/h 64% 0 mm meteobridge W/m2
23:34 8.2 °C 1.8 °C 1030 hPa East 3.2 km/h 6.4 km/h 64% 0 mm meteobridge W/m2
23:39 8.2 °C 1.8 °C 1030 hPa SE 7.9 km/h 17.7 km/h 64% 0 mm meteobridge W/m2
23:44 8.2 °C 1.8 °C 1030 hPa Calm   9.7 km/h 64% 0 mm meteobridge W/m2
23:49 8.1 °C 1.9 °C 1030 hPa Calm   6.4 km/h 65% 0 mm meteobridge W/m2
23:54 8.1 °C 1.7 °C 1030 hPa Calm   8 km/h 64% 0 mm meteobridge W/m2
23:59 7.9 °C 1.5 °C 1029.7 hPa SE 3.2 km/h 12.9 km/h 64% 0 mm meteobridge W/m2
EllijayWeather
Compliments of Weather Underground - 2.5 mb